sensor_id;sensor_type;location;lat;lon;timestamp;temperature;humidity
69382;DHT22;56560;50.692;12.844;2022-09-20T00:00:29;9.60;86.70
69382;DHT22;56560;50.692;12.844;2022-09-20T00:02:55;9.60;86.60
69382;DHT22;56560;50.692;12.844;2022-09-20T00:05:20;9.70;87.30
69382;DHT22;56560;50.692;12.844;2022-09-20T00:07:46;9.60;87.60
69382;DHT22;56560;50.692;12.844;2022-09-20T00:10:11;9.60;87.20
69382;DHT22;56560;50.692;12.844;2022-09-20T00:12:38;9.70;87.60
69382;DHT22;56560;50.692;12.844;2022-09-20T00:15:05;9.70;87.30
69382;DHT22;56560;50.692;12.844;2022-09-20T00:17:30;9.70;86.70
69382;DHT22;56560;50.692;12.844;2022-09-20T00:19:56;9.70;87.20
69382;DHT22;56560;50.692;12.844;2022-09-20T00:22:22;9.70;86.70
69382;DHT22;56560;50.692;12.844;2022-09-20T00:24:47;9.70;86.00
69382;DHT22;56560;50.692;12.844;2022-09-20T00:27:13;9.70;86.60
69382;DHT22;56560;50.692;12.844;2022-09-20T00:29:39;9.70;86.70
69382;DHT22;56560;50.692;12.844;2022-09-20T00:32:05;9.70;87.00
69382;DHT22;56560;50.692;12.844;2022-09-20T00:34:30;9.70;86.70
69382;DHT22;56560;50.692;12.844;2022-09-20T00:37:15;9.70;86.80
69382;DHT22;56560;50.692;12.844;2022-09-20T00:39:40;9.70;86.80
69382;DHT22;56560;50.692;12.844;2022-09-20T00:42:09;9.70;86.60
69382;DHT22;56560;50.692;12.844;2022-09-20T00:44:55;9.70;87.50
69382;DHT22;56560;50.692;12.844;2022-09-20T00:47:43;9.70;87.00
69382;DHT22;56560;50.692;12.844;2022-09-20T00:52:49;9.70;87.50
69382;DHT22;56560;50.692;12.844;2022-09-20T00:55:17;9.70;87.00
69382;DHT22;56560;50.692;12.844;2022-09-20T00:57:44;9.70;86.40
69382;DHT22;56560;50.692;12.844;2022-09-20T01:00:11;9.60;86.50
69382;DHT22;56560;50.692;12.844;2022-09-20T01:02:41;9.60;86.60
69382;DHT22;56560;50.692;12.844;2022-09-20T01:05:08;9.50;86.20
69382;DHT22;56560;50.692;12.844;2022-09-20T01:07:36;9.50;86.40
69382;DHT22;56560;50.692;12.844;2022-09-20T01:10:02;9.50;86.30
69382;DHT22;56560;50.692;12.844;2022-09-20T01:12:32;9.50;87.00
69382;DHT22;56560;50.692;12.844;2022-09-20T01:15:03;9.40;87.30
69382;DHT22;56560;50.692;12.844;2022-09-20T01:17:31;9.50;86.60
69382;DHT22;56560;50.692;12.844;2022-09-20T01:20:29;9.40;87.30
69382;DHT22;56560;50.692;12.844;2022-09-20T01:23:36;9.40;87.30
69382;DHT22;56560;50.692;12.844;2022-09-20T01:26:18;9.50;87.30
69382;DHT22;56560;50.692;12.844;2022-09-20T01:28:48;9.50;87.20
69382;DHT22;56560;50.692;12.844;2022-09-20T01:42:12;9.40;87.60
69382;DHT22;56560;50.692;12.844;2022-09-20T01:45:02;9.30;88.20
69382;DHT22;56560;50.692;12.844;2022-09-20T01:47:44;9.20;88.50
69382;DHT22;56560;50.692;12.844;2022-09-20T01:50:24;9.20;88.10
69382;DHT22;56560;50.692;12.844;2022-09-20T02:01:58;9.20;87.90
69382;DHT22;56560;50.692;12.844;2022-09-20T02:13:06;9.10;87.60
69382;DHT22;56560;50.692;12.844;2022-09-20T02:43:34;8.70;90.40
69382;DHT22;56560;50.692;12.844;2022-09-20T02:46:09;8.70;90.20
69382;DHT22;56560;50.692;12.844;2022-09-20T02:51:24;8.70;89.90
69382;DHT22;56560;50.692;12.844;2022-09-20T03:07:50;8.70;89.80
69382;DHT22;56560;50.692;12.844;2022-09-20T03:10:53;8.60;90.10
69382;DHT22;56560;50.692;12.844;2022-09-20T03:13:52;8.60;89.50
69382;DHT22;56560;50.692;12.844;2022-09-20T03:36:09;8.30;91.10
69382;DHT22;56560;50.692;12.844;2022-09-20T03:47:00;8.40;91.50
69382;DHT22;56560;50.692;12.844;2022-09-20T03:52:55;8.50;91.30
69382;DHT22;56560;50.692;12.844;2022-09-20T04:03:52;8.50;90.40
69382;DHT22;56560;50.692;12.844;2022-09-20T04:14:45;8.50;90.50
69382;DHT22;56560;50.692;12.844;2022-09-20T04:17:24;8.50;90.40
69382;DHT22;56560;50.692;12.844;2022-09-20T04:20:06;8.50;89.70
69382;DHT22;56560;50.692;12.844;2022-09-20T04:22:37;8.40;90.40
69382;DHT22;56560;50.692;12.844;2022-09-20T04:25:20;8.40;91.10
69382;DHT22;56560;50.692;12.844;2022-09-20T04:27:58;8.40;91.10
69382;DHT22;56560;50.692;12.844;2022-09-20T04:30:28;8.40;91.30
69382;DHT22;56560;50.692;12.844;2022-09-20T04:33:19;8.50;91.50
69382;DHT22;56560;50.692;12.844;2022-09-20T04:36:02;8.50;91.10
69382;DHT22;56560;50.692;12.844;2022-09-20T04:55:55;8.40;90.40
69382;DHT22;56560;50.692;12.844;2022-09-20T04:58:35;8.40;91.00
69382;DHT22;56560;50.692;12.844;2022-09-20T05:06:57;8.60;90.60
69382;DHT22;56560;50.692;12.844;2022-09-20T05:29:25;8.50;89.70
69382;DHT22;56560;50.692;12.844;2022-09-20T05:32:13;8.50;90.10
69382;DHT22;56560;50.692;12.844;2022-09-20T05:35:00;8.40;90.30
69382;DHT22;56560;50.692;12.844;2022-09-20T05:40:30;8.50;91.10
69382;DHT22;56560;50.692;12.844;2022-09-20T05:54:17;8.60;90.90
69382;DHT22;56560;50.692;12.844;2022-09-20T05:59:41;8.90;88.90
69382;DHT22;56560;50.692;12.844;2022-09-20T06:05:28;9.00;88.60
69382;DHT22;56560;50.692;12.844;2022-09-20T06:13:43;8.80;89.20
69382;DHT22;56560;50.692;12.844;2022-09-20T06:16:36;8.80;89.10
69382;DHT22;56560;50.692;12.844;2022-09-20T06:22:02;8.80;85.20
69382;DHT22;56560;50.692;12.844;2022-09-20T06:24:48;8.70;86.20
69382;DHT22;56560;50.692;12.844;2022-09-20T06:27:27;8.60;87.20
69382;DHT22;56560;50.692;12.844;2022-09-20T06:29:59;8.60;88.30
69382;DHT22;56560;50.692;12.844;2022-09-20T06:32:26;8.60;89.00
69382;DHT22;56560;50.692;12.844;2022-09-20T06:34:52;8.70;89.20
69382;DHT22;56560;50.692;12.844;2022-09-20T06:37:43;8.80;88.90
69382;DHT22;56560;50.692;12.844;2022-09-20T06:40:45;8.80;88.60
69382;DHT22;56560;50.692;12.844;2022-09-20T06:43:44;8.80;88.70
69382;DHT22;56560;50.692;12.844;2022-09-20T06:46:10;8.80;88.90
69382;DHT22;56560;50.692;12.844;2022-09-20T06:48:37;8.80;89.40
69382;DHT22;56560;50.692;12.844;2022-09-20T06:51:05;8.80;89.40
69382;DHT22;56560;50.692;12.844;2022-09-20T06:53:35;8.90;89.00
69382;DHT22;56560;50.692;12.844;2022-09-20T06:56:02;8.80;88.60
69382;DHT22;56560;50.692;12.844;2022-09-20T06:58:27;8.80;88.90
69382;DHT22;56560;50.692;12.844;2022-09-20T07:00:54;8.90;89.50
69382;DHT22;56560;50.692;12.844;2022-09-20T07:03:19;9.00;88.50
69382;DHT22;56560;50.692;12.844;2022-09-20T07:05:45;9.10;88.60
69382;DHT22;56560;50.692;12.844;2022-09-20T07:08:11;9.20;87.90
69382;DHT22;56560;50.692;12.844;2022-09-20T07:10:38;9.30;87.40
69382;DHT22;56560;50.692;12.844;2022-09-20T07:13:04;9.30;86.80
69382;DHT22;56560;50.692;12.844;2022-09-20T07:15:31;9.30;85.20
69382;DHT22;56560;50.692;12.844;2022-09-20T07:17:57;9.30;85.30
69382;DHT22;56560;50.692;12.844;2022-09-20T07:20:25;9.30;86.30
69382;DHT22;56560;50.692;12.844;2022-09-20T07:22:50;9.70;85.30
69382;DHT22;56560;50.692;12.844;2022-09-20T07:25:17;10.00;84.90
69382;DHT22;56560;50.692;12.844;2022-09-20T07:27:43;10.20;85.70
69382;DHT22;56560;50.692;12.844;2022-09-20T07:30:12;10.40;83.90
69382;DHT22;56560;50.692;12.844;2022-09-20T07:32:38;10.60;82.10
69382;DHT22;56560;50.692;12.844;2022-09-20T07:35:06;10.60;81.50
69382;DHT22;56560;50.692;12.844;2022-09-20T07:37:32;10.50;81.50
69382;DHT22;56560;50.692;12.844;2022-09-20T07:39:58;10.60;83.10
69382;DHT22;56560;50.692;12.844;2022-09-20T07:42:24;10.50;81.90
69382;DHT22;56560;50.692;12.844;2022-09-20T07:44:49;10.40;80.90
69382;DHT22;56560;50.692;12.844;2022-09-20T07:47:15;10.30;81.40
69382;DHT22;56560;50.692;12.844;2022-09-20T07:49:41;10.20;82.40
69382;DHT22;56560;50.692;12.844;2022-09-20T07:52:07;10.20;81.70
69382;DHT22;56560;50.692;12.844;2022-09-20T07:54:34;10.40;81.70
69382;DHT22;56560;50.692;12.844;2022-09-20T07:57:00;10.40;81.30
69382;DHT22;56560;50.692;12.844;2022-09-20T07:59:25;10.40;81.20
69382;DHT22;56560;50.692;12.844;2022-09-20T08:01:51;10.40;81.90
69382;DHT22;56560;50.692;12.844;2022-09-20T08:04:17;10.50;81.90
69382;DHT22;56560;50.692;12.844;2022-09-20T08:06:44;10.40;82.30
69382;DHT22;56560;50.692;12.844;2022-09-20T08:09:10;10.20;82.30
69382;DHT22;56560;50.692;12.844;2022-09-20T08:11:36;10.20;81.00
69382;DHT22;56560;50.692;12.844;2022-09-20T08:14:04;10.20;79.50
69382;DHT22;56560;50.692;12.844;2022-09-20T08:16:31;10.30;81.00
69382;DHT22;56560;50.692;12.844;2022-09-20T08:19:01;10.40;82.00
69382;DHT22;56560;50.692;12.844;2022-09-20T08:21:32;10.40;81.70
69382;DHT22;56560;50.692;12.844;2022-09-20T08:23:58;10.40;81.70
69382;DHT22;56560;50.692;12.844;2022-09-20T08:26:26;10.40;82.00
69382;DHT22;56560;50.692;12.844;2022-09-20T08:28:54;10.60;83.10
69382;DHT22;56560;50.692;12.844;2022-09-20T08:31:22;10.90;82.00
69382;DHT22;56560;50.692;12.844;2022-09-20T08:33:49;11.10;82.10
69382;DHT22;56560;50.692;12.844;2022-09-20T08:36:20;11.30;81.10
69382;DHT22;56560;50.692;12.844;2022-09-20T08:38:46;11.50;80.30
69382;DHT22;56560;50.692;12.844;2022-09-20T08:44:01;12.20;77.00
69382;DHT22;56560;50.692;12.844;2022-09-20T08:46:32;12.50;75.40
69382;DHT22;56560;50.692;12.844;2022-09-20T08:49:03;12.80;73.40
69382;DHT22;56560;50.692;12.844;2022-09-20T08:51:32;12.80;71.70
69382;DHT22;56560;50.692;12.844;2022-09-20T08:53:59;12.80;72.50
69382;DHT22;56560;50.692;12.844;2022-09-20T08:56:31;12.70;73.20
69382;DHT22;56560;50.692;12.844;2022-09-20T08:58:58;12.60;71.60
69382;DHT22;56560;50.692;12.844;2022-09-20T09:01:26;12.40;71.50
69382;DHT22;56560;50.692;12.844;2022-09-20T09:06:38;13.40;73.40
69382;DHT22;56560;50.692;12.844;2022-09-20T09:09:04;14.00;69.60
69382;DHT22;56560;50.692;12.844;2022-09-20T09:11:30;14.60;67.60
69382;DHT22;56560;50.692;12.844;2022-09-20T09:14:01;14.80;67.60
69382;DHT22;56560;50.692;12.844;2022-09-20T09:16:32;14.50;65.90
69382;DHT22;56560;50.692;12.844;2022-09-20T09:19:28;14.00;66.50
69382;DHT22;56560;50.692;12.844;2022-09-20T09:21:59;13.30;71.00
69382;DHT22;56560;50.692;12.844;2022-09-20T09:24:25;13.20;72.90
69382;DHT22;56560;50.692;12.844;2022-09-20T09:27:04;13.40;72.60
69382;DHT22;56560;50.692;12.844;2022-09-20T09:29:31;13.80;71.50
69382;DHT22;56560;50.692;12.844;2022-09-20T09:32:18;13.90;68.50
69382;DHT22;56560;50.692;12.844;2022-09-20T09:34:43;14.30;69.10
69382;DHT22;56560;50.692;12.844;2022-09-20T09:37:25;14.70;66.90
69382;DHT22;56560;50.692;12.844;2022-09-20T09:40:17;14.60;65.70
69382;DHT22;56560;50.692;12.844;2022-09-20T09:42:55;14.20;69.60
69382;DHT22;56560;50.692;12.844;2022-09-20T09:47:52;13.60;68.20
69382;DHT22;56560;50.692;12.844;2022-09-20T09:50:29;13.30;68.70
69382;DHT22;56560;50.692;12.844;2022-09-20T09:52:58;13.10;69.80
69382;DHT22;56560;50.692;12.844;2022-09-20T09:55:32;13.00;69.80
69382;DHT22;56560;50.692;12.844;2022-09-20T09:58:08;13.10;69.70
69382;DHT22;56560;50.692;12.844;2022-09-20T10:00:37;13.10;70.50
69382;DHT22;56560;50.692;12.844;2022-09-20T10:03:58;13.20;69.80
69382;DHT22;56560;50.692;12.844;2022-09-20T10:06:21;13.00;69.40
69382;DHT22;56560;50.692;12.844;2022-09-20T10:09:44;12.90;71.40
69382;DHT22;56560;50.692;12.844;2022-09-20T10:17:50;12.10;74.60
69382;DHT22;56560;50.692;12.844;2022-09-20T10:29:02;13.30;70.60
69382;DHT22;56560;50.692;12.844;2022-09-20T10:34:51;13.90;68.50
69382;DHT22;56560;50.692;12.844;2022-09-20T10:37:39;13.20;72.20
69382;DHT22;56560;50.692;12.844;2022-09-20T10:48:25;12.60;75.00
69382;DHT22;56560;50.692;12.844;2022-09-20T10:53:30;13.90;71.60
69382;DHT22;56560;50.692;12.844;2022-09-20T11:01:47;15.20;67.80
69382;DHT22;56560;50.692;12.844;2022-09-20T11:10:20;16.00;60.40
69382;DHT22;56560;50.692;12.844;2022-09-20T11:12:54;15.40;63.90
69382;DHT22;56560;50.692;12.844;2022-09-20T11:15:34;14.80;66.10
69382;DHT22;56560;50.692;12.844;2022-09-20T11:18:14;14.70;67.30
69382;DHT22;56560;50.692;12.844;2022-09-20T11:21:04;14.80;66.20
69382;DHT22;56560;50.692;12.844;2022-09-20T11:26:45;15.90;64.40
69382;DHT22;56560;50.692;12.844;2022-09-20T11:29:38;17.20;57.40
69382;DHT22;56560;50.692;12.844;2022-09-20T11:32:11;18.10;54.80
69382;DHT22;56560;50.692;12.844;2022-09-20T11:37:18;18.20;54.20
69382;DHT22;56560;50.692;12.844;2022-09-20T11:39:50;17.20;56.40
69382;DHT22;56560;50.692;12.844;2022-09-20T11:42:21;16.00;58.30
69382;DHT22;56560;50.692;12.844;2022-09-20T11:44:49;15.30;63.00
69382;DHT22;56560;50.692;12.844;2022-09-20T11:47:31;15.20;64.50
69382;DHT22;56560;50.692;12.844;2022-09-20T11:55:28;19.30;53.70
69382;DHT22;56560;50.692;12.844;2022-09-20T11:58:05;20.70;49.40
69382;DHT22;56560;50.692;12.844;2022-09-20T12:00:35;21.40;50.10
69382;DHT22;56560;50.692;12.844;2022-09-20T12:03:05;20.40;49.00
69382;DHT22;56560;50.692;12.844;2022-09-20T12:05:38;19.00;52.90
69382;DHT22;56560;50.692;12.844;2022-09-20T12:08:19;18.10;56.00
69382;DHT22;56560;50.692;12.844;2022-09-20T12:11:01;17.90;58.20
69382;DHT22;56560;50.692;12.844;2022-09-20T12:13:30;18.00;59.10
69382;DHT22;56560;50.692;12.844;2022-09-20T12:16:04;17.90;55.70
69382;DHT22;56560;50.692;12.844;2022-09-20T12:21:12;17.00;57.40
69382;DHT22;56560;50.692;12.844;2022-09-20T12:26:38;15.30;59.90
69382;DHT22;56560;50.692;12.844;2022-09-20T12:29:01;14.80;61.40
69382;DHT22;56560;50.692;12.844;2022-09-20T12:31:37;14.50;65.30
69382;DHT22;56560;50.692;12.844;2022-09-20T12:52:27;22.70;42.70
69382;DHT22;56560;50.692;12.844;2022-09-20T13:00:48;24.50;39.10
69382;DHT22;56560;50.692;12.844;2022-09-20T13:05:48;25.10;38.80
69382;DHT22;56560;50.692;12.844;2022-09-20T13:19:06;25.40;36.80
69382;DHT22;56560;50.692;12.844;2022-09-20T13:21:40;25.60;36.70
69382;DHT22;56560;50.692;12.844;2022-09-20T13:24:11;25.00;36.30
69382;DHT22;56560;50.692;12.844;2022-09-20T13:26:44;24.90;35.70
69382;DHT22;56560;50.692;12.844;2022-09-20T13:29:36;24.80;36.10
69382;DHT22;56560;50.692;12.844;2022-09-20T13:32:28;24.10;37.10
69382;DHT22;56560;50.692;12.844;2022-09-20T13:40:18;24.80;37.40
69382;DHT22;56560;50.692;12.844;2022-09-20T13:42:46;25.50;37.00
69382;DHT22;56560;50.692;12.844;2022-09-20T13:45:13;26.20;36.60
69382;DHT22;56560;50.692;12.844;2022-09-20T13:47:46;26.30;34.30
69382;DHT22;56560;50.692;12.844;2022-09-20T13:50:33;26.50;35.10
69382;DHT22;56560;50.692;12.844;2022-09-20T13:53:01;27.00;34.90
69382;DHT22;56560;50.692;12.844;2022-09-20T13:55:36;27.20;34.80
69382;DHT22;56560;50.692;12.844;2022-09-20T13:58:24;27.40;33.60
69382;DHT22;56560;50.692;12.844;2022-09-20T14:03:20;28.20;33.20
69382;DHT22;56560;50.692;12.844;2022-09-20T14:05:49;28.40;32.60
69382;DHT22;56560;50.692;12.844;2022-09-20T14:08:25;28.30;31.80
69382;DHT22;56560;50.692;12.844;2022-09-20T14:11:15;28.10;31.00
69382;DHT22;56560;50.692;12.844;2022-09-20T14:13:53;27.40;30.80
69382;DHT22;56560;50.692;12.844;2022-09-20T14:16:21;27.40;30.50
69382;DHT22;56560;50.692;12.844;2022-09-20T14:18:48;27.40;32.20
69382;DHT22;56560;50.692;12.844;2022-09-20T14:21:19;27.80;31.80
69382;DHT22;56560;50.692;12.844;2022-09-20T14:23:55;27.60;31.90
69382;DHT22;56560;50.692;12.844;2022-09-20T14:26:30;27.30;31.40
69382;DHT22;56560;50.692;12.844;2022-09-20T14:29:40;27.50;31.40
69382;DHT22;56560;50.692;12.844;2022-09-20T14:35:11;25.40;33.70
69382;DHT22;56560;50.692;12.844;2022-09-20T14:37:43;25.60;31.20
69382;DHT22;56560;50.692;12.844;2022-09-20T14:42:50;25.90;32.60
69382;DHT22;56560;50.692;12.844;2022-09-20T14:45:39;26.00;32.20
69382;DHT22;56560;50.692;12.844;2022-09-20T14:56:14;24.70;34.60
69382;DHT22;56560;50.692;12.844;2022-09-20T14:59:20;23.80;34.70
69382;DHT22;56560;50.692;12.844;2022-09-20T15:02:07;22.70;37.10
69382;DHT22;56560;50.692;12.844;2022-09-20T15:04:35;20.60;39.40
69382;DHT22;56560;50.692;12.844;2022-09-20T15:07:07;19.30;42.40
69382;DHT22;56560;50.692;12.844;2022-09-20T15:09:35;19.90;43.50
69382;DHT22;56560;50.692;12.844;2022-09-20T15:12:27;21.50;42.40
69382;DHT22;56560;50.692;12.844;2022-09-20T15:14:53;22.70;39.60
69382;DHT22;56560;50.692;12.844;2022-09-20T15:17:20;23.80;36.70
69382;DHT22;56560;50.692;12.844;2022-09-20T15:19:46;25.10;35.40
69382;DHT22;56560;50.692;12.844;2022-09-20T15:22:13;26.10;33.30
69382;DHT22;56560;50.692;12.844;2022-09-20T15:24:39;27.00;32.40
69382;DHT22;56560;50.692;12.844;2022-09-20T15:27:05;27.90;32.10
69382;DHT22;56560;50.692;12.844;2022-09-20T15:29:31;28.50;31.30
69382;DHT22;56560;50.692;12.844;2022-09-20T15:31:56;28.70;29.80
69382;DHT22;56560;50.692;12.844;2022-09-20T15:34:22;28.40;30.60
69382;DHT22;56560;50.692;12.844;2022-09-20T15:36:48;28.40;30.10
69382;DHT22;56560;50.692;12.844;2022-09-20T15:39:15;28.00;30.40
69382;DHT22;56560;50.692;12.844;2022-09-20T15:41:41;26.90;30.90
69382;DHT22;56560;50.692;12.844;2022-09-20T15:44:10;25.20;33.10
69382;DHT22;56560;50.692;12.844;2022-09-20T15:46:36;23.50;35.80
69382;DHT22;56560;50.692;12.844;2022-09-20T15:49:02;21.70;36.60
69382;DHT22;56560;50.692;12.844;2022-09-20T15:51:29;20.00;39.70
69382;DHT22;56560;50.692;12.844;2022-09-20T15:53:58;19.00;42.70
69382;DHT22;56560;50.692;12.844;2022-09-20T15:56:26;18.50;44.40
69382;DHT22;56560;50.692;12.844;2022-09-20T15:58:55;17.60;46.80
69382;DHT22;56560;50.692;12.844;2022-09-20T16:01:25;16.80;47.10
69382;DHT22;56560;50.692;12.844;2022-09-20T16:03:51;16.10;49.40
69382;DHT22;56560;50.692;12.844;2022-09-20T16:06:18;15.60;50.90
69382;DHT22;56560;50.692;12.844;2022-09-20T16:08:43;15.20;52.50
69382;DHT22;56560;50.692;12.844;2022-09-20T16:11:12;15.00;52.90
69382;DHT22;56560;50.692;12.844;2022-09-20T16:13:38;14.60;54.40
69382;DHT22;56560;50.692;12.844;2022-09-20T16:16:05;14.30;56.40
69382;DHT22;56560;50.692;12.844;2022-09-20T16:18:31;14.20;58.70
69382;DHT22;56560;50.692;12.844;2022-09-20T16:21:17;14.10;59.00
69382;DHT22;56560;50.692;12.844;2022-09-20T16:23:52;14.00;57.70
69382;DHT22;56560;50.692;12.844;2022-09-20T16:26:18;14.00;59.80
69382;DHT22;56560;50.692;12.844;2022-09-20T16:28:46;14.10;58.50
69382;DHT22;56560;50.692;12.844;2022-09-20T16:31:27;14.10;57.80
69382;DHT22;56560;50.692;12.844;2022-09-20T16:33:53;14.00;58.40
69382;DHT22;56560;50.692;12.844;2022-09-20T16:36:19;13.90;58.40
69382;DHT22;56560;50.692;12.844;2022-09-20T16:38:48;13.80;60.10
69382;DHT22;56560;50.692;12.844;2022-09-20T16:41:14;13.60;60.80
69382;DHT22;56560;50.692;12.844;2022-09-20T16:43:40;13.50;60.10
69382;DHT22;56560;50.692;12.844;2022-09-20T16:46:05;13.30;61.90
69382;DHT22;56560;50.692;12.844;2022-09-20T16:48:31;13.10;60.60
69382;DHT22;56560;50.692;12.844;2022-09-20T16:50:57;12.90;60.10
69382;DHT22;56560;50.692;12.844;2022-09-20T16:53:26;12.50;58.10
69382;DHT22;56560;50.692;12.844;2022-09-20T16:55:53;12.20;60.40
69382;DHT22;56560;50.692;12.844;2022-09-20T16:58:28;12.00;60.80
69382;DHT22;56560;50.692;12.844;2022-09-20T17:01:02;11.80;64.10
69382;DHT22;56560;50.692;12.844;2022-09-20T17:03:28;11.40;59.20
69382;DHT22;56560;50.692;12.844;2022-09-20T17:06:03;11.00;58.10
69382;DHT22;56560;50.692;12.844;2022-09-20T17:08:31;10.60;62.10
69382;DHT22;56560;50.692;12.844;2022-09-20T17:11:26;10.30;63.10
69382;DHT22;56560;50.692;12.844;2022-09-20T17:13:51;10.00;68.30
69382;DHT22;56560;50.692;12.844;2022-09-20T17:16:22;9.80;67.50
69382;DHT22;56560;50.692;12.844;2022-09-20T17:19:15;9.70;68.60
69382;DHT22;56560;50.692;12.844;2022-09-20T17:21:44;9.40;72.60
69382;DHT22;56560;50.692;12.844;2022-09-20T17:24:15;9.30;74.70
69382;DHT22;56560;50.692;12.844;2022-09-20T17:26:43;9.20;74.00
69382;DHT22;56560;50.692;12.844;2022-09-20T17:29:11;9.20;75.10
69382;DHT22;56560;50.692;12.844;2022-09-20T17:31:40;9.20;75.60
69382;DHT22;56560;50.692;12.844;2022-09-20T17:34:08;9.20;74.80
69382;DHT22;56560;50.692;12.844;2022-09-20T17:36:37;9.10;77.70
69382;DHT22;56560;50.692;12.844;2022-09-20T17:39:04;9.00;77.10
69382;DHT22;56560;50.692;12.844;2022-09-20T17:41:31;8.80;78.30
69382;DHT22;56560;50.692;12.844;2022-09-20T17:43:59;8.50;80.00
69382;DHT22;56560;50.692;12.844;2022-09-20T17:46:28;8.30;82.30
69382;DHT22;56560;50.692;12.844;2022-09-20T17:48:58;8.10;81.70
69382;DHT22;56560;50.692;12.844;2022-09-20T17:51:29;8.00;82.10
69382;DHT22;56560;50.692;12.844;2022-09-20T17:53:55;7.90;83.30
69382;DHT22;56560;50.692;12.844;2022-09-20T17:56:21;7.90;83.30
69382;DHT22;56560;50.692;12.844;2022-09-20T17:58:54;7.80;83.60
69382;DHT22;56560;50.692;12.844;2022-09-20T18:01:21;7.70;84.60
69382;DHT22;56560;50.692;12.844;2022-09-20T18:03:47;7.60;85.60
69382;DHT22;56560;50.692;12.844;2022-09-20T18:06:25;7.50;86.40
69382;DHT22;56560;50.692;12.844;2022-09-20T18:08:56;7.40;86.40
69382;DHT22;56560;50.692;12.844;2022-09-20T18:14:01;7.30;85.70
69382;DHT22;56560;50.692;12.844;2022-09-20T18:16:27;7.20;85.70
69382;DHT22;56560;50.692;12.844;2022-09-20T18:18:55;7.10;86.60
69382;DHT22;56560;50.692;12.844;2022-09-20T18:21:22;7.00;86.90
69382;DHT22;56560;50.692;12.844;2022-09-20T18:23:49;7.00;86.60
69382;DHT22;56560;50.692;12.844;2022-09-20T18:26:21;6.90;86.80
69382;DHT22;56560;50.692;12.844;2022-09-20T18:29:00;6.80;87.00
69382;DHT22;56560;50.692;12.844;2022-09-20T18:33:58;6.80;87.50
69382;DHT22;56560;50.692;12.844;2022-09-20T18:36:28;6.80;88.00
69382;DHT22;56560;50.692;12.844;2022-09-20T18:38:55;6.80;88.10
69382;DHT22;56560;50.692;12.844;2022-09-20T18:41:24;6.70;88.40
69382;DHT22;56560;50.692;12.844;2022-09-20T18:43:51;6.70;88.70
69382;DHT22;56560;50.692;12.844;2022-09-20T18:46:17;6.70;88.90
69382;DHT22;56560;50.692;12.844;2022-09-20T18:48:48;6.70;89.00
69382;DHT22;56560;50.692;12.844;2022-09-20T18:51:14;6.60;89.10
69382;DHT22;56560;50.692;12.844;2022-09-20T18:53:40;6.60;89.60
69382;DHT22;56560;50.692;12.844;2022-09-20T18:56:28;6.50;89.70
69382;DHT22;56560;50.692;12.844;2022-09-20T18:59:01;6.60;89.30
69382;DHT22;56560;50.692;12.844;2022-09-20T19:09:50;6.60;88.30
69382;DHT22;56560;50.692;12.844;2022-09-20T19:20:42;6.50;89.00
69382;DHT22;56560;50.692;12.844;2022-09-20T19:26:23;6.70;88.60
69382;DHT22;56560;50.692;12.844;2022-09-20T19:28:51;6.90;88.10
69382;DHT22;56560;50.692;12.844;2022-09-20T19:31:27;6.90;88.00
69382;DHT22;56560;50.692;12.844;2022-09-20T19:33:54;7.00;87.90
69382;DHT22;56560;50.692;12.844;2022-09-20T19:36:28;7.00;87.50
69382;DHT22;56560;50.692;12.844;2022-09-20T19:39:02;7.00;87.20
69382;DHT22;56560;50.692;12.844;2022-09-20T19:41:49;7.00;87.50
69382;DHT22;56560;50.692;12.844;2022-09-20T19:47:31;6.90;87.70
69382;DHT22;56560;50.692;12.844;2022-09-20T19:50:12;6.90;88.10
69382;DHT22;56560;50.692;12.844;2022-09-20T19:52:40;6.90;87.90
69382;DHT22;56560;50.692;12.844;2022-09-20T19:55:10;6.90;87.90
69382;DHT22;56560;50.692;12.844;2022-09-20T19:57:43;7.00;87.70
69382;DHT22;56560;50.692;12.844;2022-09-20T20:00:12;7.00;86.90
69382;DHT22;56560;50.692;12.844;2022-09-20T20:02:42;6.90;87.70
69382;DHT22;56560;50.692;12.844;2022-09-20T20:05:17;6.80;88.20
69382;DHT22;56560;50.692;12.844;2022-09-20T20:15:57;6.60;88.80
69382;DHT22;56560;50.692;12.844;2022-09-20T20:21:36;6.50;89.40
69382;DHT22;56560;50.692;12.844;2022-09-20T20:26:50;6.30;89.70
69382;DHT22;56560;50.692;12.844;2022-09-20T20:29:16;6.30;89.70
69382;DHT22;56560;50.692;12.844;2022-09-20T20:31:41;6.30;89.70
69382;DHT22;56560;50.692;12.844;2022-09-20T20:34:07;6.20;90.10
69382;DHT22;56560;50.692;12.844;2022-09-20T20:36:33;6.20;89.80
69382;DHT22;56560;50.692;12.844;2022-09-20T20:38:59;6.20;90.30
69382;DHT22;56560;50.692;12.844;2022-09-20T20:41:26;6.30;90.60
69382;DHT22;56560;50.692;12.844;2022-09-20T20:43:53;6.30;90.70
69382;DHT22;56560;50.692;12.844;2022-09-20T20:46:22;6.30;90.80
69382;DHT22;56560;50.692;12.844;2022-09-20T20:48:48;6.40;90.60
69382;DHT22;56560;50.692;12.844;2022-09-20T20:51:21;6.40;90.80
69382;DHT22;56560;50.692;12.844;2022-09-20T20:53:51;6.50;90.40
69382;DHT22;56560;50.692;12.844;2022-09-20T20:56:28;6.50;90.10
69382;DHT22;56560;50.692;12.844;2022-09-20T20:58:56;6.50;89.60
69382;DHT22;56560;50.692;12.844;2022-09-20T21:01:37;6.50;89.30
69382;DHT22;56560;50.692;12.844;2022-09-20T21:04:03;6.50;89.60
69382;DHT22;56560;50.692;12.844;2022-09-20T21:06:32;6.50;90.00
69382;DHT22;56560;50.692;12.844;2022-09-20T21:08:59;6.40;90.00
69382;DHT22;56560;50.692;12.844;2022-09-20T21:11:31;6.50;90.20
69382;DHT22;56560;50.692;12.844;2022-09-20T21:13:59;6.50;90.20
69382;DHT22;56560;50.692;12.844;2022-09-20T21:16:30;6.40;90.50
69382;DHT22;56560;50.692;12.844;2022-09-20T21:18:57;6.40;90.60
69382;DHT22;56560;50.692;12.844;2022-09-20T21:23:50;6.30;90.80
69382;DHT22;56560;50.692;12.844;2022-09-20T21:26:17;6.20;91.10
69382;DHT22;56560;50.692;12.844;2022-09-20T21:28:54;6.30;90.90
69382;DHT22;56560;50.692;12.844;2022-09-20T21:31:24;6.30;90.90
69382;DHT22;56560;50.692;12.844;2022-09-20T21:33:51;6.30;90.90
69382;DHT22;56560;50.692;12.844;2022-09-20T21:36:19;6.20;91.10
69382;DHT22;56560;50.692;12.844;2022-09-20T21:38:45;6.30;90.90
69382;DHT22;56560;50.692;12.844;2022-09-20T21:43:46;6.30;90.60
69382;DHT22;56560;50.692;12.844;2022-09-20T21:46:27;6.30;90.60
69382;DHT22;56560;50.692;12.844;2022-09-20T21:48:55;6.30;90.70
69382;DHT22;56560;50.692;12.844;2022-09-20T21:51:22;6.30;90.50
69382;DHT22;56560;50.692;12.844;2022-09-20T21:53:50;6.30;90.50
69382;DHT22;56560;50.692;12.844;2022-09-20T21:56:16;6.30;90.50
69382;DHT22;56560;50.692;12.844;2022-09-20T21:58:43;6.40;90.00